Dilley, TX

6:40 PM CST on March 02, 2015 (GMT -0600)
Cotulla-La Salle County | Change Station
CLOSE
Current Station
Airport
Location: Cotulla,
Elevation: 476 ft
Nearby Weather Stations

Elev 476 ft 28.46 °N, 99.22 °W | Updated 29 minutes ago

Fog
Fog
48 °F
Feels Like 48 °F
N
5
Wind Variable Wind from East

Today
High -- | Low -- °F
--% Chance of Precip.
Yesterday
High -- | Low -- °F
Precip. -- in
7:00 AM 6:37 PM
Waxing Gibbous, 93% visible
Pressure 30.15 in
Visibility 2.5 miles
Clouds Overcast 400 ft
Dew Point 46 °F
Humidity 93%
Rainfall 0.01 in
Snow Depth Not available.
UV 0 out of 12
Pollen 8.40 out of 12
Air Quality Not available.
Flu Activity Not available.
SPECI KCOT 030011Z AUTO 08004KT 2 1/2SM -RA BR OVC004 09/08 A3015 RMK AO2 RAB2356 P0000 T00890078

More Conditions Fewer Conditions

Pressure 30.15 in
Visibility 2.5 miles
Clouds Overcast 400 ft
Dew Point 46 °F
Humidity 93%
Rainfall 0.01 in
Snow Depth Not available.
UV 0 out of 12
Pollen 8.40 out of 12
Air Quality Not available.
Flu Activity Not available.
SPECI KCOT 030011Z AUTO 08004KT 2 1/2SM -RA BR OVC004 09/08 A3015 RMK AO2 RAB2356 P0000 T00890078

More Conditions Fewer Conditions

Nowcast | as of 6:29 PM CST on March 2, 2015

Widespread areas of fog will be likely through the remainder of the evening and through the overnight hours. Visibilities will range from a couple miles down to less than a mile. As the night progresses...the fog will likely get even thicker and visibilities down to near zero will be possible. Exercise great caution if traveling and remember to use low beams and slower speeds.

×

10-Day Weather Forecast

Almanac

Astronomy

Mar. 02, 2015 Rise Set
Actual Time
Civil Twilight
Nautical Twilight
Astronomical Twilight
Moon
Length of Visible Light
Length of Day
Tomorrow will be .
, % of the Moon is Illuminated

Today's Extremes

State Highs State Lows

Community

WunderPhotos

Upload Photos

1,802,009 photos uploaded!

WunderBlogs® & News

Nearby

Air Quality

  Air Quality AQ Index Pollutant
Not available.

Snow Depth

Station Depth Elevation

Earthquake Activity

City Distance Mag. Time & Date
Minimum magnitude displayed is 2.5.

Coastal Water Temperatures

Place Temperature

Nearby Weather Stations